Time;durP1;ratioP1;P1;durP2;ratioP2;P2;SDS_P1;SDS_P2;PMS_P1;PMS_P2;Temp;Humidity;BMP_temperature;BMP_pressure;BME280_temperature;BME280_humidity;BME280_pressure;Samples;Min_cycle;Max_cycle;Signal;HPM_P1;HPM_P2
2023/01/28 00:00:08;;;;;;;11.32;5.25;;;2.30;99.90;;;;;;5064877;28;20043;-88
2023/01/28 00:02:36;;;;;;;11.45;5.82;;;2.30;99.90;;;;;;5074422;28;20472;-88
2023/01/28 00:05:03;;;;;;;10.05;5.80;;;2.30;99.90;;;;;;5091762;28;20217;-89
2023/01/28 00:07:31;;;;;;;11.10;5.85;;;2.30;99.90;;;;;;5055403;28;20108;-88
2023/01/28 00:09:57;;;;;;;9.90;5.53;;;;;;;;;;5093407;28;20058;-87
2023/01/28 00:12:23;;;;;;;10.57;5.25;;;2.30;99.90;;;;;;5092090;28;20506;-88
2023/01/28 00:14:50;;;;;;;10.20;5.65;;;;;;;;;;5066211;28;20043;-88
2023/01/28 00:17:24;;;;;;;10.50;5.35;;;2.30;99.90;;;;;;5068585;28;20070;-87
2023/01/28 00:19:50;;;;;;;10.10;5.63;;;2.30;99.90;;;;;;5088020;28;20100;-88
2023/01/28 00:22:15;;;;;;;10.20;5.68;;;2.30;99.90;;;;;;5087550;28;20081;-88
2023/01/28 00:24:41;;;;;;;10.65;6.00;;;3.30;99.90;;;;;;5055497;28;20040;-88
2023/01/28 00:27:07;;;;;;;11.18;6.20;;;2.30;99.90;;;;;;5091817;28;20043;-88
2023/01/28 00:29:36;;;;;;;10.70;6.18;;;;;;;;;;5071963;28;20047;-89
2023/01/28 00:32:02;;;;;;;11.68;6.78;;;2.30;99.90;;;;;;5066504;28;20048;-86
2023/01/28 00:34:27;;;;;;;15.90;10.43;;;2.40;99.90;;;;;;5073119;28;20062;-87
2023/01/28 00:36:56;;;;;;;13.90;8.30;;;;;;;;;;5068921;28;20038;-88
2023/01/28 00:39:26;;;;;;;14.68;8.00;;;2.30;99.90;;;;;;5089337;28;20119;-89
2023/01/28 00:41:55;;;;;;;10.57;5.00;;;2.30;99.90;;;;;;5082278;28;20523;-89
2023/01/28 00:44:21;;;;;;;10.20;4.93;;;-0.70;99.90;;;;;;5071665;28;20032;-87
2023/01/28 00:46:47;;;;;;;9.77;5.32;;;2.30;99.90;;;;;;5066245;28;20036;-88
2023/01/28 00:49:13;;;;;;;11.95;6.32;;;2.30;99.90;;;;;;5072473;28;20047;-87
2023/01/28 00:51:38;;;;;;;11.35;5.80;;;2.30;99.90;;;;;;5077407;28;20110;-88
2023/01/28 00:54:05;;;;;;;9.73;5.20;;;;;;;;;;5068786;28;20493;-88
2023/01/28 00:56:30;;;;;;;10.45;5.32;;;2.40;99.90;;;;;;5074667;28;20043;-87
2023/01/28 00:58:59;;;;;;;10.05;5.63;;;2.30;99.90;;;;;;5065751;28;20036;-88
2023/01/28 01:01:28;;;;;;;10.20;5.70;;;2.30;99.90;;;;;;5052889;28;20121;-87
2023/01/28 01:04:01;;;;;;;13.00;6.93;;;2.30;99.90;;;;;;5072926;28;20416;-87
2023/01/28 01:06:34;;;;;;;10.90;5.43;;;2.30;99.90;;;;;;5093827;28;20051;-88
2023/01/28 01:09:00;;;;;;;;;;;2.30;99.90;;;;;;5066374;28;20047;-88
2023/01/28 01:11:26;;;;;;;9.68;4.90;;;3.60;99.90;;;;;;5075259;28;19927;-88
2023/01/28 01:13:56;;;;;;;13.48;6.15;;;2.30;99.90;;;;;;5083732;28;20040;-87
2023/01/28 01:16:37;;;;;;;11.50;6.47;;;2.80;99.90;;;;;;5064173;28;20299;-89
2023/01/28 01:19:03;;;;;;;11.10;5.80;;;2.30;99.90;;;;;;5087506;28;20385;-88
2023/01/28 01:21:30;;;;;;;10.50;5.82;;;;;;;;;;5088588;28;20033;-89
2023/01/28 01:23:58;;;;;;;11.18;6.07;;;;;;;;;;5069165;28;20059;-88
2023/01/28 01:26:32;;;;;;;10.95;5.50;;;2.30;99.90;;;;;;5089356;28;20400;-88
2023/01/28 01:28:58;;;;;;;9.48;4.43;;;2.30;99.90;;;;;;5067631;28;20055;-88
2023/01/28 01:31:24;;;;;;;10.15;5.53;;;2.30;99.90;;;;;;5066814;28;20557;-88
2023/01/28 01:33:51;;;;;;;11.50;6.85;;;2.30;99.90;;;;;;5076935;28;20036;-89
2023/01/28 01:36:19;;;;;;;10.30;5.43;;;2.30;99.90;;;;;;5069579;28;20072;-88
2023/01/28 01:38:48;;;;;;;8.88;3.95;;;;;;;;;;5071927;28;20149;-88
2023/01/28 01:41:25;;;;;;;10.57;4.78;;;2.40;99.90;;;;;;5072813;28;20035;-89
2023/01/28 01:44:00;;;;;;;8.77;4.50;;;2.30;99.90;;;;;;5075974;28;20070;-88
2023/01/28 01:46:49;;;;;;;12.52;6.30;;;2.30;99.90;;;;;;5077638;28;20062;-88
2023/01/28 01:49:27;;;;;;;12.02;6.15;;;2.30;99.90;;;;;;5087521;28;20436;-88
2023/01/28 01:52:09;;;;;;;10.35;5.38;;;;;;;;;;5068010;28;20500;-89
2023/01/28 01:54:37;;;;;;;10.18;5.18;;;2.40;99.90;;;;;;5088605;28;20050;-89
2023/01/28 01:57:06;;;;;;;10.65;3.58;;;2.30;99.90;;;;;;5088685;28;20064;-87
2023/01/28 01:59:34;;;;;;;8.32;2.90;;;2.30;99.90;;;;;;5076826;28;20036;-88
2023/01/28 02:02:03;;;;;;;7.30;2.50;;;2.30;99.90;;;;;;5097299;28;20046;-87
2023/01/28 02:04:33;;;;;;;8.35;2.70;;;2.30;99.90;;;;;;5080500;28;20057;-88
2023/01/28 02:07:03;;;;;;;12.05;5.38;;;2.30;99.90;;;;;;5070478;28;20040;-88
2023/01/28 02:09:31;;;;;;;8.50;3.20;;;2.10;99.90;;;;;;5072863;28;20124;-88
2023/01/28 02:12:04;;;;;;;8.55;3.00;;;2.30;99.90;;;;;;5072601;28;20040;-88
2023/01/28 02:14:33;;;;;;;7.60;2.70;;;2.30;99.90;;;;;;5077242;28;20040;-88
2023/01/28 02:17:00;;;;;;;5.88;2.40;;;2.30;99.90;;;;;;5089432;28;20040;-86
2023/01/28 02:19:41;;;;;;;7.50;2.65;;;3.20;99.90;;;;;;5089593;28;20136;-87
2023/01/28 02:22:38;;;;;;;6.63;2.60;;;2.30;99.90;;;;;;5072484;28;20052;-88
2023/01/28 02:25:22;;;;;;;6.45;2.60;;;2.30;99.90;;;;;;5098509;28;20059;-88
2023/01/28 02:28:14;;;;;;;7.22;2.92;;;2.30;99.90;;;;;;5079179;28;20044;-88
2023/01/28 02:30:50;;;;;;;9.30;3.17;;;2.30;99.90;;;;;;5077892;28;20051;-89
2023/01/28 02:33:34;;;;;;;7.75;3.00;;;;;;;;;;5080065;28;20051;-87
2023/01/28 02:36:09;;;;;;;7.75;2.90;;;2.30;99.90;;;;;;5074585;28;20057;-87
2023/01/28 02:38:48;;;;;;;6.60;2.80;;;;;;;;;;5078108;28;20046;-88
2023/01/28 02:41:22;;;;;;;6.78;2.80;;;2.30;99.90;;;;;;5084985;28;20080;-89
2023/01/28 02:43:51;;;;;;;7.20;2.80;;;3.40;99.90;;;;;;5073885;28;20036;-88
2023/01/28 02:49:19;;;;;;;8.65;3.55;;;2.30;99.90;;;;;;5090119;28;20051;-88
2023/01/28 02:52:16;;;;;;;10.07;4.93;;;2.30;99.90;;;;;;5090650;28;20075;-89
2023/01/28 02:54:59;;;;;;;8.77;4.10;;;2.30;99.90;;;;;;5078864;28;20035;-89
2023/01/28 02:57:38;;;;;;;8.95;3.78;;;2.30;99.90;;;;;;5085086;28;20032;-88
2023/01/28 03:00:16;;;;;;;7.20;3.20;;;2.30;99.90;;;;;;5091501;28;20044;-88
2023/01/28 03:03:07;;;;;;;7.90;3.25;;;;;;;;;;5096059;28;20036;-89
2023/01/28 03:06:02;;;;;;;7.57;3.20;;;2.30;99.90;;;;;;5077945;28;20039;-90
2023/01/28 03:37:47;;;;;;;7.93;3.33;;;3.90;99.90;;;;;;5095225;28;20111;-88
2023/01/28 03:40:17;;;;;;;9.85;3.55;;;2.30;99.90;;;;;;5052272;28;20115;-88
2023/01/28 03:42:43;;;;;;;7.97;3.67;;;2.30;99.90;;;;;;5066961;28;20036;-88
2023/01/28 03:45:13;;;;;;;8.20;3.90;;;;;;;;;;5059488;28;20078;-89
2023/01/28 03:47:39;;;;;;;9.13;3.67;;;2.30;99.90;;;;;;5075574;28;20507;-88
2023/01/28 03:50:06;;;;;;;7.40;3.00;;;-0.10;99.90;;;;;;5066452;28;20047;-88
2023/01/28 03:52:32;;;;;;;8.05;3.70;;;;;;;;;;5079421;28;20520;-88
2023/01/28 03:54:59;;;;;;;8.10;3.35;;;;;;;;;;5089505;28;21251;-89
2023/01/28 03:57:32;;;;;;;7.53;3.40;;;2.40;99.90;;;;;;5071001;28;20054;-89
2023/01/28 03:59:58;;;;;;;7.43;3.35;;;2.40;99.90;;;;;;5074083;28;20077;-88
2023/01/28 04:02:26;;;;;;;7.50;3.50;;;3.60;99.90;;;;;;5052370;28;20044;-88
2023/01/28 04:04:52;;;;;;;8.93;3.35;;;2.30;99.90;;;;;;5089495;28;20032;-88
2023/01/28 04:07:17;;;;;;;7.75;3.50;;;2.30;99.90;;;;;;5088797;28;20557;-89
2023/01/28 04:09:43;;;;;;;9.05;3.83;;;;;;;;;;5068599;28;20220;-88
2023/01/28 04:12:14;;;;;;;8.73;3.95;;;2.40;99.90;;;;;;5087323;28;20047;-89
2023/01/28 04:14:41;;;;;;;8.13;4.05;;;2.40;99.90;;;;;;5089716;28;20455;-89
2023/01/28 04:17:09;;;;;;;8.55;4.07;;;2.30;99.90;;;;;;5067662;28;20039;-89
2023/01/28 04:19:36;;;;;;;8.10;3.67;;;2.30;99.90;;;;;;5070577;28;20092;-87
2023/01/28 04:22:10;;;;;;;8.50;4.40;;;2.30;99.90;;;;;;5072636;28;20044;-89
2023/01/28 04:24:35;;;;;;;8.75;3.92;;;3.50;99.90;;;;;;5069762;28;20071;-89
2023/01/28 04:27:04;;;;;;;8.80;3.85;;;3.80;99.90;;;;;;5089305;28;20517;-89
2023/01/28 04:29:33;;;;;;;7.63;3.65;;;;;;;;;;5103184;28;20040;-89
2023/01/28 04:31:59;;;;;;;8.55;3.88;;;2.40;99.90;;;;;;5090057;28;20126;-90
2023/01/28 04:34:25;;;;;;;9.40;3.80;;;;;;;;;;5067494;28;20058;-90
2023/01/28 04:36:53;;;;;;;8.52;3.80;;;2.40;99.90;;;;;;5072926;28;20090;-90
2023/01/28 04:39:19;;;;;;;7.95;3.53;;;2.30;99.90;;;;;;5073498;28;20039;-88
2023/01/28 04:41:57;;;;;;;8.70;3.70;;;2.40;99.90;;;;;;5070011;28;20104;-88
2023/01/28 04:44:29;;;;;;;9.35;3.47;;;2.30;99.90;;;;;;5087293;28;20394;-89
2023/01/28 04:47:00;;;;;;;9.55;3.85;;;;;;;;;;5069492;28;20032;-89
2023/01/28 04:49:26;;;;;;;8.13;3.88;;;2.40;99.90;;;;;;5082931;28;20120;-90
2023/01/28 04:52:13;;;;;;;10.88;4.18;;;3.10;99.90;;;;;;5067329;28;20552;-89
2023/01/28 04:54:41;;;;;;;9.60;3.80;;;2.40;99.90;;;;;;5074072;28;20051;-89
2023/01/28 04:57:07;;;;;;;8.75;3.95;;;2.20;99.90;;;;;;5065228;28;20036;-89
2023/01/28 04:59:35;;;;;;;8.30;3.50;;;2.30;99.90;;;;;;5065719;28;20492;-89
2023/01/28 05:02:01;;;;;;;8.13;3.88;;;2.50;99.90;;;;;;5066302;28;20043;-88
2023/01/28 05:04:27;;;;;;;8.80;3.88;;;2.30;99.90;;;;;;5065895;28;20048;-89
2023/01/28 05:07:02;;;;;;;8.73;3.88;;;2.30;99.90;;;;;;5072595;28;20055;-89
2023/01/28 05:09:27;;;;;;;9.18;3.72;;;2.30;99.90;;;;;;5082680;28;20043;-89
2023/01/28 05:11:59;;;;;;;9.77;3.90;;;2.30;99.90;;;;;;5091639;28;20039;-89
2023/01/28 05:14:27;;;;;;;8.13;3.80;;;2.30;99.90;;;;;;5072532;28;20286;-87
2023/01/28 05:16:53;;;;;;;8.98;3.70;;;2.20;99.90;;;;;;5087657;28;20435;-89
2023/01/28 05:19:25;;;;;;;9.05;4.28;;;2.30;99.90;;;;;;5059030;28;20039;-89
2023/01/28 05:21:51;;;;;;;8.30;3.92;;;2.30;99.90;;;;;;5076252;28;20051;-89
2023/01/28 05:24:17;;;;;;;8.25;3.88;;;2.30;99.90;;;;;;5064592;28;20416;-88
2023/01/28 05:26:42;;;;;;;8.70;4.05;;;2.30;99.90;;;;;;5068554;28;20134;-90
2023/01/28 05:29:18;;;;;;;8.05;3.90;;;2.30;99.90;;;;;;5063877;28;20036;-89
2023/01/28 05:31:46;;;;;;;8.57;4.30;;;2.30;99.90;;;;;;5071471;28;20047;-88
2023/01/28 05:34:14;;;;;;;9.48;4.43;;;2.20;99.90;;;;;;5073344;28;20043;-88
2023/01/28 05:36:43;;;;;;;8.70;3.95;;;2.20;99.90;;;;;;5083962;28;20054;-89
2023/01/28 05:39:09;;;;;;;9.50;4.50;;;3.80;99.90;;;;;;5060135;28;20036;-90
2023/01/28 05:41:34;;;;;;;8.55;4.35;;;2.20;99.90;;;;;;5092186;28;20069;-90
2023/01/28 05:44:03;;;;;;;9.27;4.30;;;2.20;99.90;;;;;;5080144;28;20040;-89
2023/01/28 05:46:29;;;;;;;8.93;4.35;;;;;;;;;;5065931;28;20040;-89
2023/01/28 05:48:55;;;;;;;9.07;4.32;;;;;;;;;;5079857;28;20040;-89
2023/01/28 05:51:24;;;;;;;8.80;4.35;;;;;;;;;;5076093;28;20138;-87
2023/01/28 05:53:50;;;;;;;9.35;4.43;;;;;;;;;;5091819;28;20163;-91
2023/01/28 05:56:16;;;;;;;8.88;4.40;;;2.20;99.90;;;;;;5078925;28;20052;-92
2023/01/28 05:58:45;;;;;;;9.93;4.57;;;2.20;99.90;;;;;;5075032;28;20039;-92
2023/01/28 06:01:11;;;;;;;9.18;4.40;;;2.20;99.90;;;;;;5074502;28;20044;-90
2023/01/28 06:03:36;;;;;;;10.00;4.57;;;1.10;99.90;;;;;;5077929;28;20038;-90
2023/01/28 06:06:05;;;;;;;9.63;4.68;;;2.30;99.90;;;;;;5080124;28;20047;-92
2023/01/28 06:08:36;;;;;;;9.57;4.43;;;1.20;99.90;;;;;;5082332;28;20557;-91
2023/01/28 06:11:05;;;;;;;9.60;4.75;;;2.20;99.90;;;;;;5102347;28;20098;-91
2023/01/28 06:13:31;;;;;;;9.75;4.53;;;;;;;;;;5069844;28;20055;-91
2023/01/28 06:15:57;;;;;;;9.82;4.40;;;2.20;99.90;;;;;;5075318;28;20048;-89
2023/01/28 06:18:22;;;;;;;10.63;4.93;;;2.20;99.90;;;;;;5061012;28;20103;-89
2023/01/28 06:20:49;;;;;;;9.60;4.68;;;2.20;99.90;;;;;;5066439;28;20028;-91
2023/01/28 06:23:15;;;;;;;9.15;4.97;;;3.00;99.90;;;;;;5075234;28;20032;-90
2023/01/28 06:25:40;;;;;;;10.38;4.93;;;1.70;99.90;;;;;;5062446;28;20042;-90
2023/01/28 06:28:11;;;;;;;10.85;5.40;;;2.20;99.90;;;;;;5079453;28;20319;-89
2023/01/28 06:30:45;;;;;;;9.80;5.20;;;2.20;99.90;;;;;;5096272;28;20051;-91
2023/01/28 06:33:20;;;;;;;10.13;5.55;;;;;;;;;;5072865;28;20048;-91
2023/01/28 06:35:46;;;;;;;9.98;5.38;;;;;;;;;;5078844;28;20120;-92
2023/01/28 06:38:21;;;;;;;9.57;5.03;;;;;;;;;;5079652;28;20035;-91
2023/01/28 06:40:52;;;;;;;11.20;5.10;;;2.20;99.90;;;;;;5072374;28;20040;-91
2023/01/28 06:43:17;;;;;;;10.10;5.15;;;2.20;99.90;;;;;;5101564;28;20256;-89
2023/01/28 06:45:54;;;;;;;9.98;5.60;;;2.20;99.90;;;;;;5047952;28;20339;-89
2023/01/28 06:48:27;;;;;;;10.40;5.70;;;2.20;99.90;;;;;;5094624;28;20063;-91
2023/01/28 06:50:53;;;;;;;10.57;5.40;;;;;;;;;;5068921;28;20050;-91
2023/01/28 06:53:22;;;;;;;10.27;5.55;;;2.10;99.90;;;;;;5079104;28;20032;-91
2023/01/28 06:55:48;;;;;;;12.00;5.47;;;2.10;99.90;;;;;;5097716;28;20131;-90
2023/01/28 06:58:14;;;;;;;10.45;5.78;;;2.10;99.90;;;;;;5080812;28;20043;-90
2023/01/28 07:00:42;;;;;;;10.60;5.45;;;2.10;99.90;;;;;;5065106;28;20034;-90
2023/01/28 07:03:08;;;;;;;9.57;5.32;;;2.00;99.90;;;;;;5086223;28;20050;-91
2023/01/28 07:05:43;;;;;;;10.70;5.72;;;;;;;;;;5062479;28;20035;-90
2023/01/28 07:08:20;;;;;;;13.23;5.85;;;;;;;;;;5096095;28;20043;-89
2023/01/28 07:10:46;;;;;;;10.95;6.10;;;1.90;99.90;;;;;;5071795;28;20542;-89
2023/01/28 07:13:20;;;;;;;11.15;6.00;;;1.90;99.90;;;;;;5081295;28;20071;-89
2023/01/28 07:15:49;;;;;;;11.40;5.70;;;1.90;99.90;;;;;;5068111;28;20044;-90
2023/01/28 07:18:15;;;;;;;11.23;6.30;;;;;;;;;;5072418;28;20043;-89
2023/01/28 07:20:44;;;;;;;11.38;6.35;;;1.80;99.90;;;;;;5103091;28;20054;-88
2023/01/28 07:23:13;;;;;;;11.05;6.20;;;1.80;99.90;;;;;;5076128;28;20707;-90
2023/01/28 07:25:39;;;;;;;10.77;6.20;;;1.80;99.90;;;;;;5080925;28;20105;-90
2023/01/28 07:28:05;;;;;;;11.00;6.18;;;1.70;99.90;;;;;;5064333;28;20043;-88
2023/01/28 07:30:31;;;;;;;11.52;6.38;;;0.00;99.90;;;;;;5050742;28;20047;-89
2023/01/28 07:32:58;;;;;;;11.40;6.50;;;1.70;99.90;;;;;;5070398;28;20145;-87
2023/01/28 07:35:24;;;;;;;11.88;7.05;;;1.60;99.90;;;;;;5082669;28;20058;-90
2023/01/28 07:37:52;;;;;;;11.90;7.05;;;1.50;99.90;;;;;;5082609;28;20028;-90
2023/01/28 07:40:23;;;;;;;11.35;6.63;;;1.50;99.90;;;;;;5072418;28;20507;-90
2023/01/28 07:42:54;;;;;;;13.00;7.82;;;;;;;;;;5082431;28;20048;-89
2023/01/28 07:45:20;;;;;;;12.65;7.63;;;;;;;;;;5095338;28;20043;-89
2023/01/28 07:47:53;;;;;;;13.30;7.80;;;;;;;;;;5074119;28;20084;-89
2023/01/28 07:50:19;;;;;;;;;;;1.20;99.90;;;;;;5088671;28;20039;-89
2023/01/28 07:52:45;;;;;;;11.90;7.00;;;1.40;99.90;;;;;;5077603;28;20061;-87
2023/01/28 07:55:14;;;;;;;13.55;7.85;;;1.40;99.90;;;;;;5080367;28;20040;-89
2023/01/28 07:57:54;;;;;;;12.10;7.43;;;1.40;99.90;;;;;;5074867;28;20484;-89
2023/01/28 08:00:27;;;;;;;12.70;7.20;;;;;;;;;;5100178;28;20062;-90
2023/01/28 08:03:11;;;;;;;13.02;7.03;;;1.40;99.90;;;;;;5070935;28;20103;-91
2023/01/28 08:05:46;;;;;;;12.15;7.15;;;1.40;99.90;;;;;;5075633;28;20043;-88
2023/01/28 08:08:17;;;;;;;12.10;7.18;;;1.40;99.90;;;;;;5073873;28;20118;-89
2023/01/28 08:10:46;;;;;;;12.30;7.05;;;1.50;99.90;;;;;;5079472;28;20060;-90
2023/01/28 08:13:15;;;;;;;12.95;7.20;;;-0.10;99.90;;;;;;5064852;28;20056;-91
2023/01/28 08:15:41;;;;;;;12.60;7.38;;;1.50;99.90;;;;;;5092580;28;20126;-90
2023/01/28 08:18:16;;;;;;;11.77;6.80;;;1.60;99.90;;;;;;5086345;28;20119;-89
2023/01/28 08:20:45;;;;;;;11.75;6.65;;;1.50;99.90;;;;;;5115244;27;20054;-89
2023/01/28 08:23:13;;;;;;;11.80;6.85;;;1.60;99.90;;;;;;5089227;28;20036;-90
2023/01/28 08:25:46;;;;;;;11.38;6.90;;;1.50;99.90;;;;;;5077813;28;20097;-90
2023/01/28 08:28:15;;;;;;;14.45;7.35;;;1.30;99.90;;;;;;5097503;28;20058;-89
2023/01/28 08:30:44;;;;;;;13.63;7.03;;;1.60;99.90;;;;;;5079403;28;20042;-89
2023/01/28 08:33:12;;;;;;;11.95;7.18;;;0.00;99.90;;;;;;5084454;28;20050;-89
2023/01/28 08:35:38;;;;;;;13.07;7.70;;;1.60;99.90;;;;;;5078246;28;20476;-88
2023/01/28 08:38:07;;;;;;;12.88;8.00;;;;;;;;;;5065119;28;20024;-89
2023/01/28 08:40:34;;;;;;;16.20;8.15;;;1.90;99.90;;;;;;5088947;28;20047;-89
2023/01/28 08:43:00;;;;;;;13.95;8.50;;;2.00;99.90;;;;;;5080102;28;20047;-89
2023/01/28 08:45:27;;;;;;;15.45;9.02;;;2.00;99.90;;;;;;5071813;28;20044;-89
2023/01/28 08:47:54;;;;;;;14.65;9.02;;;2.20;99.90;;;;;;5094063;28;20626;-89
2023/01/28 08:50:22;;;;;;;14.27;8.40;;;0.40;99.90;;;;;;5098908;28;20096;-89
2023/01/28 08:52:53;;;;;;;13.63;8.07;;;3.30;99.90;;;;;;5116534;27;20040;-88
2023/01/28 08:55:19;;;;;;;14.38;8.45;;;2.00;99.90;;;;;;5103568;28;20082;-89
2023/01/28 08:57:45;;;;;;;12.50;7.38;;;2.90;99.90;;;;;;5098005;28;20499;-89
2023/01/28 09:00:11;;;;;;;12.75;7.80;;;;;;;;;;5107340;28;20034;-91
2023/01/28 09:02:38;;;;;;;14.30;8.43;;;;;;;;;;5071476;28;20549;-90
2023/01/28 09:05:05;;;;;;;12.90;8.00;;;2.10;99.90;;;;;;5084919;28;20046;-88
2023/01/28 09:07:31;;;;;;;14.40;8.98;;;2.20;99.90;;;;;;5074705;28;20075;-90
2023/01/28 09:10:03;;;;;;;16.67;9.23;;;;;;;;;;5074323;28;20130;-89
2023/01/28 09:12:29;;;;;;;13.97;8.57;;;2.40;99.90;;;;;;5092056;28;20043;-89
2023/01/28 09:14:55;;;;;;;14.43;8.35;;;2.40;99.90;;;;;;5081597;28;20442;-89
2023/01/28 09:17:21;;;;;;;13.20;7.70;;;2.60;99.90;;;;;;5073437;28;20036;-90
2023/01/28 09:19:47;;;;;;;12.45;7.05;;;2.60;99.90;;;;;;5090292;28;20063;-90
2023/01/28 09:22:13;;;;;;;11.05;6.55;;;;;;;;;;5108458;28;20051;-88
2023/01/28 09:24:39;;;;;;;11.80;6.43;;;2.60;99.90;;;;;;5091149;28;20035;-88
2023/01/28 09:27:05;;;;;;;12.43;6.65;;;4.00;99.90;;;;;;5068240;28;20422;-90
2023/01/28 09:29:33;;;;;;;11.20;6.70;;;2.90;99.90;;;;;;5079432;28;20124;-89
2023/01/28 09:31:59;;;;;;;10.45;6.25;;;3.00;99.90;;;;;;5081941;28;20044;-88
2023/01/28 09:34:25;;;;;;;10.68;6.00;;;3.00;99.90;;;;;;5070937;28;20059;-90
2023/01/28 09:36:51;;;;;;;10.65;6.22;;;;;;;;;;5063781;28;20070;-90
2023/01/28 09:39:17;;;;;;;11.00;6.28;;;3.30;99.90;;;;;;5079534;28;20100;-90
2023/01/28 09:41:49;;;;;;;13.35;6.32;;;3.30;99.90;;;;;;5072436;28;20466;-90
2023/01/28 09:44:25;;;;;;;11.02;6.45;;;3.60;99.90;;;;;;5108284;28;20126;-90
2023/01/28 09:46:54;;;;;;;10.45;6.10;;;3.50;99.90;;;;;;5089275;28;20067;-88
2023/01/28 09:49:23;;;;;;;10.63;6.03;;;3.50;99.90;;;;;;5074361;28;20492;-89
2023/01/28 09:51:51;;;;;;;11.45;5.90;;;;;;;;;;5091518;28;20036;-89
2023/01/28 09:54:46;;;;;;;10.95;6.13;;;3.60;99.90;;;;;;5090968;28;20071;-89
2023/01/28 09:57:22;;;;;;;11.13;5.72;;;3.60;99.90;;;;;;5053033;28;20134;-89
2023/01/28 09:59:49;;;;;;;10.98;6.07;;;3.50;99.90;;;;;;5098351;28;20036;-90
2023/01/28 10:02:21;;;;;;;10.50;5.60;;;3.80;99.90;;;;;;5109299;28;20492;-90
2023/01/28 10:05:02;;;;;;;11.10;6.22;;;3.50;99.90;;;;;;5091175;28;20046;-91
2023/01/28 10:07:40;;;;;;;10.20;5.80;;;3.60;99.90;;;;;;5078939;28;20046;-90
2023/01/28 10:10:15;;;;;;;9.93;5.57;;;4.30;99.90;;;;;;5087016;28;20081;-90
2023/01/28 10:12:59;;;;;;;10.52;5.85;;;3.40;99.90;;;;;;5108448;28;20056;-91
2023/01/28 10:15:25;;;;;;;10.48;6.07;;;4.70;99.90;;;;;;5091000;28;20042;-89
2023/01/28 10:17:53;;;;;;;10.00;5.50;;;3.60;99.90;;;;;;5091219;28;20115;-91
2023/01/28 10:20:27;;;;;;;10.23;5.68;;;3.60;99.90;;;;;;5076741;28;20035;-89
2023/01/28 10:23:17;;;;;;;10.05;5.35;;;4.80;99.90;;;;;;5111449;28;20048;-90
2023/01/28 10:25:47;;;;;;;10.65;5.47;;;3.60;99.90;;;;;;5111552;28;20039;-89
2023/01/28 10:28:26;;;;;;;11.00;5.47;;;3.50;99.90;;;;;;5074667;28;20288;-89
2023/01/28 10:30:58;;;;;;;10.40;5.55;;;3.60;99.90;;;;;;5085449;28;20122;-90
2023/01/28 10:33:31;;;;;;;11.38;6.35;;;;;;;;;;5077358;28;20047;-90
2023/01/28 10:35:57;;;;;;;10.60;5.80;;;3.70;99.90;;;;;;5094349;28;20048;-90
2023/01/28 10:38:25;;;;;;;11.18;5.85;;;3.90;99.90;;;;;;5094294;28;20058;-89
2023/01/28 10:40:51;;;;;;;10.35;6.13;;;5.20;99.90;;;;;;5092845;28;20043;-91
2023/01/28 10:43:23;;;;;;;10.40;5.88;;;4.20;99.90;;;;;;5076427;28;20400;-89
2023/01/28 10:45:58;;;;;;;10.82;5.30;;;5.20;99.90;;;;;;5110354;28;20115;-89
2023/01/28 10:48:28;;;;;;;10.32;5.45;;;5.80;99.90;;;;;;5094244;28;20508;-90
2023/01/28 10:51:01;;;;;;;9.30;5.20;;;5.90;99.90;;;;;;5101951;28;20573;-90
2023/01/28 10:53:33;;;;;;;10.55;5.43;;;4.90;99.90;;;;;;5091919;28;20043;-90
2023/01/28 10:55:59;;;;;;;10.50;5.15;;;6.70;99.90;;;;;;5111292;28;20044;-89
2023/01/28 10:58:30;;;;;;;10.82;5.53;;;4.90;99.90;;;;;;5093917;28;20035;-89
2023/01/28 11:01:00;;;;;;;9.60;4.90;;;4.90;99.90;;;;;;5104912;28;20036;-89
2023/01/28 11:03:26;;;;;;;11.18;5.80;;;5.20;99.90;;;;;;5091776;28;20055;-89
2023/01/28 11:05:56;;;;;;;10.77;5.65;;;4.90;99.90;;;;;;5076995;28;20099;-89
2023/01/28 11:08:24;;;;;;;10.07;5.38;;;5.80;99.90;;;;;;5110666;28;20122;-89
2023/01/28 11:10:51;;;;;;;10.40;5.57;;;5.40;99.90;;;;;;5092532;28;20043;-88
2023/01/28 11:13:18;;;;;;;11.00;5.57;;;6.50;99.90;;;;;;5093335;28;20040;-90
2023/01/28 11:16:15;;;;;;;11.77;5.85;;;6.90;99.90;;;;;;5093688;28;20062;-89
2023/01/28 11:18:53;;;;;;;10.85;5.35;;;6.90;99.90;;;;;;5093665;28;20051;-90
2023/01/28 11:21:23;;;;;;;10.10;5.07;;;6.10;99.90;;;;;;5093244;28;20569;-89
2023/01/28 11:23:50;;;;;;;11.07;5.57;;;5.10;99.90;;;;;;5099168;28;20051;-90
2023/01/28 11:26:38;;;;;;;10.18;5.63;;;5.10;99.90;;;;;;5085921;28;20078;-90
2023/01/28 11:29:05;;;;;;;11.68;5.55;;;6.00;99.90;;;;;;5087520;27;20499;-89
2023/01/28 11:31:40;;;;;;;10.45;5.50;;;6.80;99.90;;;;;;5097949;27;20178;-88
2023/01/28 11:34:06;;;;;;;10.73;5.25;;;5.10;99.90;;;;;;5088942;28;20116;-89
2023/01/28 11:36:33;;;;;;;11.13;5.80;;;;;;;;;;5108773;28;20507;-89
2023/01/28 11:39:15;;;;;;;11.57;5.80;;;5.20;99.90;;;;;;5087684;28;20028;-88
2023/01/28 11:41:45;;;;;;;10.20;5.38;;;5.20;99.90;;;;;;5091980;28;20407;-89
2023/01/28 11:44:25;;;;;;;12.30;5.88;;;5.20;99.90;;;;;;5092608;28;20097;-88
2023/01/28 11:46:57;;;;;;;10.65;5.50;;;;;;;;;;5092957;28;20035;-91
2023/01/28 11:49:49;;;;;;;12.65;5.53;;;;;;;;;;5082996;28;20055;-89
2023/01/28 11:52:40;;;;;;;10.13;4.80;;;5.30;99.90;;;;;;5093176;28;20075;-88
2023/01/28 11:55:40;;;;;;;11.95;5.10;;;5.40;99.90;;;;;;5109195;28;20104;-88
2023/01/28 11:58:27;;;;;;;11.10;5.13;;;5.30;99.90;;;;;;5105730;28;20047;-88
2023/01/28 12:01:12;;;;;;;11.18;4.95;;;5.40;99.90;;;;;;5092899;28;20040;-89
2023/01/28 12:04:06;;;;;;;9.68;5.05;;;5.30;99.90;;;;;;5108544;28;20101;-89
2023/01/28 12:06:47;;;;;;;;;;;5.10;99.90;;;;;;5089201;28;20036;-88
2023/01/28 12:09:30;;;;;;;9.50;4.70;;;5.30;99.90;;;;;;5101034;28;19952;-89
2023/01/28 12:12:25;;;;;;;10.45;5.10;;;5.30;99.90;;;;;;5106143;27;20039;-88
2023/01/28 12:14:57;;;;;;;10.18;5.03;;;5.30;99.90;;;;;;5088456;28;20040;-89
2023/01/28 12:17:28;;;;;;;11.18;5.13;;;6.70;99.90;;;;;;5091419;28;20143;-89
2023/01/28 12:19:57;;;;;;;10.07;5.38;;;5.20;99.90;;;;;;5109070;28;20035;-87
2023/01/28 12:22:25;;;;;;;9.95;5.20;;;6.20;99.90;;;;;;5109179;28;20363;-88
2023/01/28 12:25:22;;;;;;;12.82;5.28;;;5.50;99.90;;;;;;5088239;28;20096;-88
2023/01/28 12:28:45;;;;;;;12.85;5.82;;;5.30;99.90;;;;;;5081092;28;20032;-89
2023/01/28 12:31:16;;;;;;;10.77;5.10;;;5.30;99.90;;;;;;5013957;28;20056;-90
2023/01/28 12:34:06;;;;;;;10.55;5.05;;;5.50;99.90;;;;;;5014690;28;20402;-89
2023/01/28 12:36:32;;;;;;;12.00;5.95;;;5.60;99.90;;;;;;5059807;28;20055;-88
2023/01/28 12:39:14;;;;;;;11.98;6.00;;;3.70;99.90;;;;;;5092028;28;20036;-90
2023/01/28 12:41:52;;;;;;;13.07;5.78;;;5.80;99.90;;;;;;5079353;28;20035;-89
2023/01/28 12:44:26;;;;;;;10.35;5.60;;;6.10;99.90;;;;;;5081017;28;20032;-90
2023/01/28 12:47:06;;;;;;;11.48;5.50;;;5.60;99.90;;;;;;5077930;28;20408;-90
2023/01/28 12:49:44;;;;;;;10.02;5.30;;;4.80;99.90;;;;;;5087716;28;20050;-89
2023/01/28 12:52:34;;;;;;;11.05;5.80;;;5.40;99.90;;;;;;5091782;28;20090;-88
2023/01/28 12:55:11;;;;;;;12.50;6.07;;;5.60;99.90;;;;;;5081159;28;20068;-89
2023/01/28 12:57:37;;;;;;;11.00;5.53;;;5.60;99.90;;;;;;5092167;28;20032;-88
2023/01/28 13:00:23;;;;;;;11.57;6.15;;;7.20;99.90;;;;;;5068137;28;20039;-87
2023/01/28 13:03:08;;;;;;;10.68;6.03;;;5.80;99.90;;;;;;5081256;28;20131;-87
2023/01/28 13:05:38;;;;;;;11.27;6.10;;;5.80;99.90;;;;;;5110376;27;20052;-88
2023/01/28 13:08:12;;;;;;;12.38;6.65;;;7.50;99.90;;;;;;5083807;28;20036;-88
2023/01/28 13:10:42;;;;;;;12.15;6.30;;;6.10;99.90;;;;;;5074367;28;20090;-88
2023/01/28 13:13:27;;;;;;;10.77;5.88;;;7.70;99.90;;;;;;5090194;28;20047;-88
2023/01/28 13:15:53;;;;;;;12.07;6.13;;;6.70;99.90;;;;;;5082047;28;20063;-89
2023/01/28 13:18:44;;;;;;;10.88;5.35;;;8.00;99.90;;;;;;5081225;28;20480;-88
2023/01/28 13:21:23;;;;;;;11.93;5.57;;;7.30;99.90;;;;;;5091256;28;20516;-89
2023/01/28 13:24:01;;;;;;;10.52;5.65;;;6.00;99.90;;;;;;5082031;28;20114;-88
2023/01/28 13:26:49;;;;;;;11.30;5.90;;;6.00;99.90;;;;;;5093904;28;20043;-88
2023/01/28 13:29:28;;;;;;;13.13;6.28;;;7.30;99.90;;;;;;5075964;28;20113;-88
2023/01/28 13:31:56;;;;;;;12.05;6.10;;;5.90;99.90;;;;;;5108079;28;20043;-87
2023/01/28 13:34:35;;;;;;;12.32;6.22;;;7.00;99.90;;;;;;5091165;28;20468;-90
2023/01/28 13:37:32;;;;;;;10.32;5.60;;;5.90;99.90;;;;;;5091263;28;20046;-89
2023/01/28 13:40:13;;;;;;;11.70;6.30;;;5.80;99.90;;;;;;5059185;28;20052;-89
2023/01/28 13:42:40;;;;;;;11.68;5.82;;;5.80;99.90;;;;;;5085931;28;20044;-88
2023/01/28 13:45:14;;;;;;;12.25;5.95;;;5.80;99.90;;;;;;5091089;28;20044;-89
2023/01/28 13:47:45;;;;;;;11.30;5.68;;;6.10;99.90;;;;;;5091120;28;20130;-88
2023/01/28 13:50:18;;;;;;;11.18;6.10;;;7.50;99.90;;;;;;5108083;28;20156;-89
2023/01/28 13:53:06;;;;;;;11.57;5.80;;;5.70;99.90;;;;;;5090899;28;20047;-89
2023/01/28 13:55:38;;;;;;;12.20;6.13;;;3.40;99.90;;;;;;5031343;28;20052;-88
2023/01/28 13:58:03;;;;;;;11.25;5.65;;;5.80;99.90;;;;;;5073785;28;20067;-88
2023/01/28 14:01:10;;;;;;;;;;;;;;;;;;;;;